• Join FlightAware (Why Join?)
  • Login
  • US Flag 
07:03PM EST


 

Airport Tracker/Info


-or-


 

Live Flight TrackerFlight Track Log ✈ AAY974 ✈ 29-Apr-2013 ✈ KPGD - KTOL

Flight Track Log - Related Links

Times and Time Zones

All times are in EDT time to prevent confusion due to time zone crossing. See the AAY974 flight status page for this flight to view local times or setup timezone preferences in your user account.

Time Position Orientation Groundspeed Altitude Reporting Facility
EDT Latitude Longitude Course Direction KTS MPH feet Rate Location/Type
03:17PM 26.8661 -81.9581 North 233 268 2,900  Level Miami Center
03:18PM 26.9256 -81.9303 23° Northeast 200 230 3,900 1,500 Climbing Miami Center
03:19PM 27.0022 -81.9456 350° North 222 255 5,900 2,400 Climbing Miami Center
03:20PM 27.0836 -81.9514 356° North 248 285 8,800 2,400 Climbing Miami Center
03:21PM 27.1667 -81.9572 356° North 277 319 10,800 1,920 Climbing Miami Center
03:22PM 27.2625 -81.9639 356° North 310 357 12,700 2,100 Climbing Miami Center
03:23PM 27.6367 -82.0000 North  Level FlightAware Approximate
03:23PM 27.3625 -81.9706 357° North 341 392 15,100  Level Miami Center
03:24PM 27.4708 -81.9778 357° North 369 425 16,600 1,740 Climbing Miami Center
03:25PM 27.5728 -81.9847 357° North 390 449 18,600 1,920 Climbing Miami Center
03:28PM 27.8506 -82.0031 357° North 439 505 23,300 1,740 Climbing Jacksonville Center
03:29PM 27.9611 -82.0114 356° North 409 471 24,700 1,320 Climbing Jacksonville Center
03:30PM 28.0681 -82.0622 337° Northwest 396 456 26,000 1,080 Climbing Jacksonville Center
03:31PM 28.1706 -82.1297 330° Northwest 408 470 26,900 900 Climbing Jacksonville Center
03:32PM 28.2711 -82.1950 330° Northwest 414 476 27,900 840 Climbing Jacksonville Center
03:33PM 28.3758 -82.2603 331° Northwest 420 483 28,600 780 Climbing Jacksonville Center
03:34PM 28.4806 -82.3281 330° Northwest 425 489 29,500 900 Climbing Jacksonville Center
03:35PM 28.5850 -82.3961 330° Northwest 425 489 30,400 720 Climbing Jacksonville Center
03:36PM 28.7022 -82.4689 331° Northwest 425 489 31,000 600 Climbing Jacksonville Center
03:37PM 28.8067 -82.5372 330° Northwest 425 489 31,700 420 Climbing Jacksonville Center
03:38PM 28.9133 -82.6033 332° Northwest 425 489 31,900 60 Climbing Jacksonville Center
03:39PM 29.0181 -82.6717 330° Northwest 425 489 31,900  Level Jacksonville Center
03:40PM 29.1225 -82.7381 331° Northwest 425 489 31,900  Level Jacksonville Center
03:41PM 29.2269 -82.8069 330° Northwest 425 489 31,900  Level Jacksonville Center
03:42PM 29.3292 -82.8736 330° Northwest 425 489 32,000  Climbing Jacksonville Center
03:43PM 29.4314 -82.9403 330° Northwest 425 489 31,900 -60 Descending Jacksonville Center
03:44PM 29.5378 -83.0094 331° Northwest 425 489 31,900  Level Jacksonville Center
03:45PM 29.6464 -83.0669 335° Northwest 412 474 32,000  Climbing Jacksonville Center
03:46PM 29.7653 -83.1056 344° North 431 496 32,000  Level Jacksonville Center
03:47PM 29.8842 -83.1442 344° North 438 504 32,000  Level Jacksonville Center
03:48PM 30.0011 -83.1828 344° North 439 505 32,000  Level Jacksonville Center
03:49PM 30.1094 -83.2144 346° North 439 505 32,000  Level Jacksonville Center
03:50PM 30.2347 -83.2267 355° North 439 505 32,000 -60 Level Jacksonville Center
03:51PM 30.3578 -83.2417 354° North 439 505 31,900  Descending Jacksonville Center
03:52PM 30.4789 -83.2567 354° North 444 511 32,000  Climbing Jacksonville Center
03:53PM 30.6042 -83.2692 355° North 444 511 31,900 -60 Descending Jacksonville Center
03:54PM 30.7272 -83.2817 355° North 444 511 31,900  Level Jacksonville Center
03:55PM 30.8631 -83.2992 354° North 444 511 32,000  Climbing Jacksonville Center
03:56PM 31.1058 -83.3258 355° North 479 551 32,000  Level Atlanta Center
03:57PM 31.2394 -83.3419 354° North 484 557 32,000  Level Atlanta Center
03:58PM 31.3692 -83.3581 354° North 476 548 32,000  Level Atlanta Center
03:59PM 31.4903 -83.3692 356° North 476 548 32,000  Level Atlanta Center
04:00PM 31.6197 -83.3828 355° North 476 548 32,000  Level Atlanta Center
04:01PM 31.7511 -83.3989 354° North 476 548 32,100 300 Climbing Atlanta Center
04:02PM 31.8806 -83.4153 354° North 476 548 32,600 600 Climbing Atlanta Center
04:03PM 32.0103 -83.4289 355° North 476 548 33,400 540 Climbing Atlanta Center
04:04PM 32.1417 -83.4428 355° North 471 542 33,700 300 Climbing Atlanta Center
04:05PM 32.2692 -83.4592 354° North 466 536 34,000 120 Climbing Atlanta Center
04:06PM 32.3986 -83.4731 355° North 466 536 34,000  Level Atlanta Center
04:07PM 32.5261 -83.4894 354° North 466 536 34,000  Level Atlanta Center
04:08PM 32.6597 -83.5058 354° North 466 536 34,000  Level Atlanta Center
04:09PM 32.7911 -83.5175 356° North 466 536 34,000  Level Atlanta Center
04:10PM 32.9208 -83.5339 354° North 466 536 34,000  Level Atlanta Center
04:11PM 33.0503 -83.5506 354° North 466 536 34,000  Level Atlanta Center
04:12PM 33.1922 -83.5647 355° North 466 536 34,000  Level Atlanta Center
04:13PM 33.3236 -83.5789 355° North 466 536 34,000  Level Atlanta Center
04:14PM 33.4511 -83.5931 355° North 466 536 34,000  Level Atlanta Center
04:15PM 33.5806 -83.6100 354° North 461 531 34,000  Level Atlanta Center
04:16PM 33.7081 -83.6267 354° North 466 536 34,000  Level Atlanta Center
04:17PM 33.8353 -83.6411 355° North 461 531 34,000  Level Atlanta Center
04:18PM 33.9606 -83.6581 354° North 461 531 34,000  Level Atlanta Center
04:19PM 34.0881 -83.6725 355° North 461 531 34,000  Level Atlanta Center
04:20PM 34.2111 -83.6872 354° North 461 531 34,000  Level Atlanta Center
04:21PM 34.3386 -83.6992 356° North 455 524 34,000  Level Atlanta Center
04:22PM 34.4639 -83.7189 353° North 455 524 34,000  Level Atlanta Center
04:23PM 34.5722 -83.7286 356° North 449 517 34,000  Level Atlanta Center
04:24PM 34.6997 -83.7431 355° North 449 517 34,000  Level Atlanta Center
04:25PM 34.8208 -83.7606 353° North 437 503 34,000  Level Atlanta Center
04:26PM 34.9439 -83.7778 353° North 446 513 34,000  Level Atlanta Center
04:27PM 35.0669 -83.7925 354° North 446 513 34,000  Level Atlanta Center
04:28PM 35.1861 -83.8075 354° North 446 513 34,000  Level Atlanta Center
04:29PM 35.3069 -83.8225 354° North 440 506 34,000  Level Atlanta Center
04:30PM 35.4239 -83.8350 355° North 434 499 34,000  Level Atlanta Center
04:31PM 35.5408 -83.8500 354° North 429 494 34,000  Level Atlanta Center
04:32PM 35.6597 -83.8650 354° North 423 487 34,000  Level Atlanta Center
04:33PM 35.7767 -83.8800 354° North 423 487 34,000  Level Atlanta Center
04:34PM 35.8956 -83.8953 354° North 423 487 34,000  Level Atlanta Center
04:36PM 36.0736 -83.9186 354° North 418 481 34,000  Level Indianapolis Center
04:37PM 36.1897 -83.9356 353° North 419 482 34,000  Level Indianapolis Center
04:38PM 36.3281 -83.9550 354° North 419 482 34,000  Level Indianapolis Center
04:39PM 36.4439 -83.9592 358° North 419 482 34,000  Level Indianapolis Center
04:40PM 36.5592 -83.9528 North 418 481 34,000  Level Indianapolis Center
04:41PM 36.6764 -83.9456 North 418 481 34,000  Level Indianapolis Center
04:42PM 36.7942 -83.9383 North 419 482 34,000  Level Indianapolis Center
04:43PM 36.9131 -83.9314 North 423 487 34,000  Level Indianapolis Center
04:44PM 37.0514 -83.9233 North 423 487 34,000  Level Indianapolis Center
04:45PM 37.1697 -83.9167 North 422 486 34,000  Level Indianapolis Center
04:46PM 37.2861 -83.9097 North 420 483 34,000  Level Indianapolis Center
04:47PM 37.4028 -83.9019 North 417 480 34,000  Level Indianapolis Center
04:48PM 37.5197 -83.8947 North 420 483 34,000  Level Indianapolis Center
04:49PM 37.6378 -83.8900 North 422 486 34,000  Level Indianapolis Center
04:50PM 37.7750 -83.8794 North 420 483 34,000  Level Indianapolis Center
04:51PM 37.8922 -83.8731 North 421 484 34,000  Level Indianapolis Center
04:53PM 38.0100 -83.8650 North 422 486 34,000  Level Indianapolis Center
04:54PM 38.1272 -83.8578 North 422 486 34,000  Level Indianapolis Center
04:55PM 38.2450 -83.8494 North 422 486 34,000  Level Indianapolis Center
04:56PM 38.3619 -83.8428 North 421 484 34,000 -300 Level Indianapolis Center
04:57PM 38.4989 -83.8336 North 421 484 33,500 -540 Descending Indianapolis Center
04:58PM 38.6158 -83.8264 North 419 482 33,000 -300 Descending Indianapolis Center
04:59PM 38.7264 -83.8194 North 422 486 33,000  Level Indianapolis Center
05:00PM 38.8456 -83.8125 North 424 488 33,000  Level Indianapolis Center
05:01PM 38.9644 -83.8061 North 424 488 33,000 -60 Level Indianapolis Center
05:02PM 39.1044 -83.7953 North 428 493 32,900 -600 Descending Indianapolis Center
05:03PM 39.2242 -83.7878 North 427 491 31,800 -1,200 Descending Indianapolis Center
05:04PM 39.3461 -83.7794 North 433 498 30,500 -1,320 Descending Indianapolis Center
05:05PM 39.4692 -83.7717 North 437 503 29,100 -1,440 Descending Indianapolis Center
05:06PM 39.5925 -83.7631 North 437 503 27,600 -1,620 Descending Indianapolis Center
05:07PM 39.7181 -83.7556 North 443 510 25,900 -1,380 Descending Indianapolis Center
05:08PM 39.8425 -83.7467 North 438 504 24,800 -960 Descending Indianapolis Center
05:09PM 39.9619 -83.7383 North 423 487 24,000 -780 Descending Indianapolis Center
05:10PM 40.0797 -83.7308 North 417 480 23,300 -1,020 Descending Indianapolis Center
05:11PM 40.1967 -83.7228 North 416 479 22,000 -660 Descending Indianapolis Center
05:12PM 40.3136 -83.7153 North 415 478 22,000 -540 Level Indianapolis Center
05:13PM 40.4489 -83.7053 North 414 476 20,900 -1,620 Descending Indianapolis Center
05:14PM 40.5572 -83.6978 North 400 460 18,800 -2,400 Descending Indianapolis Center
05:15PM 40.6647 -83.6919 North 387 445 16,000 -1,860 Descending Indianapolis Center
05:16PM 40.7683 -83.6853 North 373 429 15,000 -540 Descending Indianapolis Center
05:17PM 40.8661 -83.6778 North 353 406 15,000 -900 Level Indianapolis Center
05:18PM 40.9300 -83.6750 North 345 397 13,600 -2,400 Descending Cleveland Center
05:19PM 41.0239 -83.6686 North 338 389 11,200 -1,500 Descending Cleveland Center
05:20PM 41.1117 -83.6617 North 324 373 10,600 -1,080 Descending Cleveland Center
05:21PM 41.1911 -83.6544 North 300 345 9,100 -1,560 Descending Cleveland Center
05:22PM 41.2642 -83.6522 North 280 322 7,500 -1,560 Descending Cleveland Center
05:23PM 41.3394 -83.6475 North 274 315 6,000 -780 Descending Cleveland Center
05:24PM 41.4061 -83.6425 North 256 295 6,000 -540 Level Cleveland Center
05:25PM 41.4725 -83.6594 349° North 242 278 5,000 -1,320 Descending Cleveland Center
05:26PM 41.5306 -83.6706 352° North 222 255 3,400 -1,260 Descending Cleveland Center
05:27PM 41.5844 -83.6869 347° North 212 244 2,500 -900 Descending Cleveland Center